Kantner, PA (15548)

8:40 PM EDT on June 03, 2015 (GMT -0400)
Stoystown | | Change Station
CLOSE
Current Station
Personal Weather Station
Location: Stoystown, PA
Elevation: 2172 ft
Nearby Weather Stations

Elev 2172 ft 40.11 °N, 78.94 °W | Updated 1 second ago

Overcast
Overcast
55.4 °F
Feels Like 55.4 °F
N
3.1
Wind Variable Wind from SE
Gusts 5.4 mph

Today
High -- | Low -- °F
--% Chance of Precip.
Yesterday
High -- | Low -- °F
Precip. -- in
5:48 AM 8:40 PM
Full, 98% visible
Pressure 30.16 in
Visibility 7.0 miles
Clouds Overcast 500 ft
Dew Point 43 °F
Humidity 64%
Rainfall 0.00 in
Snow Depth Not available.
UV 0 out of 12
Pollen 5.70 out of 12
Air Quality Not available.
Flu Activity Sporadic
METAR KJST 032354Z AUTO VRB05KT 7SM OVC005 13/11 A3015 RMK AO2 SLP212 T01280111 10139 20128 53000

More Conditions Fewer Conditions

Pressure 30.16 in
Visibility 7.0 miles
Clouds Overcast 500 ft
Dew Point 43 °F
Humidity 64%
Rainfall 0.00 in
Snow Depth Not available.
UV 0 out of 12
Pollen 5.70 out of 12
Air Quality Not available.
Flu Activity Sporadic
METAR KJST 032354Z AUTO VRB05KT 7SM OVC005 13/11 A3015 RMK AO2 SLP212 T01280111 10139 20128 53000

More Conditions Fewer Conditions

10-Day Weather Forecast

×

Almanac

Astronomy

Jun. 03, 2015 Rise Set
Actual Time
Civil Twilight
Nautical Twilight
Astronomical Twilight
Moon
Length of Visible Light
Length of Day
Tomorrow will be .
, % of the Moon is Illuminated

Today's Extremes

State Highs State Lows

Community

WunderPhotos

Upload Photos

1,826,325 photos uploaded!

WunderBlogs® & News

Nearby

Air Quality

  Air Quality AQ Index Pollutant
Not available.

Snow Depth

Station Depth Elevation

Earthquake Activity

City Distance Mag. Time & Date
Minimum magnitude displayed is 2.5.

Coastal Water Temperatures

Place Temperature

Stations

Nearby Weather Stations

Station Location Temp. Windchill Dew Point Humidity Wind Precip. Elev Updated Type